createdAt,value
2019-01-12T00:00:14.160Z,7.00
2019-01-12T00:02:17.062Z,7.33
2019-01-12T00:04:19.967Z,8.00
2019-01-12T00:06:22.966Z,7.30
2019-01-12T00:08:26.676Z,7.50
2019-01-12T00:10:30.431Z,7.00
2019-01-12T00:12:34.466Z,7.72
2019-01-12T00:14:37.378Z,7.72
2019-01-12T00:16:40.298Z,7.62
2019-01-12T00:18:43.250Z,6.97
2019-01-12T00:20:46.173Z,8.25
2019-01-12T00:22:49.705Z,7.03
2019-01-12T00:24:53.509Z,7.70
2019-01-12T00:26:57.189Z,7.07
2019-01-12T00:29:01.733Z,6.85
2019-01-12T00:31:06.143Z,8.43
2019-01-12T00:33:09.821Z,7.10
2019-01-12T00:35:12.766Z,6.57
2019-01-12T00:37:15.677Z,6.60
2019-01-12T00:39:18.604Z,7.10
2019-01-12T00:41:21.528Z,7.60
2019-01-12T00:43:24.554Z,7.67
2019-01-12T00:45:28.254Z,6.80
2019-01-12T00:47:34.775Z,6.86
2019-01-12T00:49:38.093Z,7.47
2019-01-12T00:51:41.010Z,6.70
2019-01-12T00:53:44.180Z,6.90
2019-01-12T00:55:47.885Z,7.13
2019-01-12T00:57:50.966Z,7.37
2019-01-12T00:59:54.790Z,6.57
2019-01-12T01:01:57.706Z,7.32
2019-01-12T01:04:00.734Z,6.80
2019-01-12T01:06:04.536Z,6.70
2019-01-12T01:08:08.210Z,6.23
2019-01-12T01:10:11.108Z,6.18
2019-01-12T01:12:14.801Z,6.53
2019-01-12T01:14:19.224Z,6.72
2019-01-12T01:16:22.185Z,6.65
2019-01-12T01:18:25.097Z,5.43
2019-01-12T01:20:28.770Z,6.15
2019-01-12T01:22:31.706Z,6.78
2019-01-12T01:24:34.617Z,6.35
2019-01-12T01:26:38.158Z,6.32
2019-01-12T01:28:41.957Z,5.40
2019-01-12T01:30:45.638Z,6.00
2019-01-12T01:32:48.559Z,6.35
2019-01-12T01:34:51.497Z,6.50
2019-01-12T01:36:54.506Z,5.47
2019-01-12T01:38:58.270Z,6.05
2019-01-12T01:41:01.330Z,6.25
2019-01-12T01:43:04.232Z,5.95
2019-01-12T01:45:07.258Z,5.43
2019-01-12T01:47:10.969Z,5.95
2019-01-12T01:49:13.881Z,6.82
2019-01-12T01:51:16.922Z,5.82
2019-01-12T01:53:20.619Z,5.68
2019-01-12T01:55:24.290Z,6.80
2019-01-12T01:57:27.510Z,5.43
2019-01-12T01:59:31.175Z,5.75
2019-01-12T02:01:34.192Z,6.22
2019-01-12T02:03:37.882Z,6.20
2019-01-12T02:05:42.293Z,4.62
2019-01-12T02:07:45.974Z,5.50
2019-01-12T02:09:49.125Z,6.03
2019-01-12T02:11:52.033Z,6.40
2019-01-12T02:13:55.187Z,5.70
2019-01-12T02:15:58.244Z,5.83
2019-01-12T02:18:01.206Z,5.37
2019-01-12T02:20:04.895Z,5.53
2019-01-12T02:22:07.795Z,5.90
2019-01-12T02:24:10.653Z,5.85
2019-01-12T02:26:13.562Z,5.90
2019-01-12T02:28:16.427Z,5.70
2019-01-12T02:30:19.303Z,5.95
2019-01-12T02:32:22.191Z,5.70
2019-01-12T02:34:25.877Z,6.03
2019-01-12T02:36:28.739Z,7.72
2019-01-12T02:38:31.763Z,7.28
2019-01-12T02:40:35.949Z,6.55
2019-01-12T02:42:38.830Z,6.70
2019-01-12T02:44:41.814Z,7.28
2019-01-12T02:46:44.803Z,7.57
2019-01-12T02:48:47.682Z,6.60
2019-01-12T02:50:50.661Z,7.35
2019-01-12T02:52:53.541Z,6.47
2019-01-12T02:54:56.525Z,7.68
2019-01-12T02:56:59.409Z,7.87
2019-01-12T02:59:02.425Z,8.07
2019-01-12T03:01:06.814Z,7.80
2019-01-12T03:03:11.215Z,6.97
2019-01-12T03:05:14.086Z,7.68
2019-01-12T03:07:17.091Z,6.87
2019-01-12T03:09:19.971Z,8.00
2019-01-12T03:11:23.607Z,6.95
2019-01-12T03:13:27.305Z,7.87
2019-01-12T03:15:31.314Z,8.40
2019-01-12T03:17:34.423Z,8.80
2019-01-12T03:19:37.377Z,8.33
2019-01-12T03:21:41.641Z,8.38
2019-01-12T03:23:45.122Z,7.55
2019-01-12T03:25:48.438Z,7.28
2019-01-12T03:27:51.317Z,8.10
2019-01-12T03:29:54.188Z,7.68
2019-01-12T03:31:57.096Z,7.22
2019-01-12T03:33:59.977Z,8.07
2019-01-12T03:36:03.186Z,7.87
2019-01-12T03:38:06.855Z,7.03
2019-01-12T03:40:09.780Z,7.32
2019-01-12T03:42:13.671Z,6.85
2019-01-12T03:44:16.631Z,6.87
2019-01-12T03:46:19.506Z,6.80
2019-01-12T03:48:22.482Z,7.95
2019-01-12T03:50:25.382Z,7.90
2019-01-12T03:52:28.352Z,7.25
2019-01-12T03:54:31.882Z,7.28
2019-01-12T03:56:36.151Z,6.93
2019-01-12T03:58:39.026Z,8.20
2019-01-12T04:00:42.024Z,7.07
2019-01-12T04:02:44.938Z,7.82
2019-01-12T04:04:48.495Z,6.25
2019-01-12T04:06:51.446Z,7.30
2019-01-12T04:08:54.318Z,7.32
2019-01-12T04:10:57.667Z,7.57
2019-01-12T04:13:00.977Z,7.10
2019-01-12T04:15:03.925Z,6.93
2019-01-12T04:17:06.799Z,6.80
2019-01-12T04:19:09.683Z,7.40
2019-01-12T04:21:12.564Z,7.40
2019-01-12T04:23:15.966Z,6.97
2019-01-12T04:25:18.867Z,6.80
2019-01-12T04:27:22.541Z,6.67
2019-01-12T04:29:26.931Z,7.53
2019-01-12T04:31:30.519Z,7.20
2019-01-12T04:33:33.390Z,7.37
2019-01-12T04:35:36.316Z,6.30
2019-01-12T04:37:39.425Z,7.17
2019-01-12T04:39:43.102Z,7.40
2019-01-12T04:41:46.082Z,8.18
2019-01-12T04:43:49.387Z,7.10
2019-01-12T04:45:52.907Z,7.18
2019-01-12T04:47:56.591Z,7.90
2019-01-12T04:50:00.270Z,7.57
2019-01-12T04:52:03.174Z,7.20
2019-01-12T04:54:06.030Z,7.30
2019-01-12T04:56:09.010Z,7.22
2019-01-12T04:58:12.647Z,7.82
2019-01-12T05:00:16.320Z,7.55
2019-01-12T05:02:19.306Z,7.82
2019-01-12T05:04:22.283Z,7.20
2019-01-12T05:06:25.275Z,8.07
2019-01-12T05:08:28.567Z,6.87
2019-01-12T05:10:32.467Z,7.25
2019-01-12T05:12:35.347Z,7.32
2019-01-12T05:14:38.622Z,7.37
2019-01-12T05:16:41.514Z,7.55
2019-01-12T05:18:44.489Z,7.10
2019-01-12T05:20:47.451Z,7.55
2019-01-12T05:22:50.338Z,7.20
2019-01-12T05:24:53.188Z,7.85
2019-01-12T05:26:56.114Z,6.85
2019-01-12T05:28:58.995Z,7.82
2019-01-12T05:31:03.377Z,8.45
2019-01-12T05:33:06.283Z,8.35
2019-01-12T05:35:09.170Z,8.55
2019-01-12T05:37:12.063Z,8.10
2019-01-12T05:39:15.073Z,7.62
2019-01-12T05:41:18.058Z,7.90
2019-01-12T05:43:21.694Z,9.40
2019-01-12T05:45:24.826Z,8.55
2019-01-12T05:47:28.822Z,7.78
2019-01-12T05:49:31.710Z,7.60
2019-01-12T05:51:35.392Z,7.70
2019-01-12T05:53:38.267Z,7.90
2019-01-12T05:55:41.147Z,7.20
2019-01-12T05:57:44.439Z,7.80
2019-01-12T05:59:47.319Z,8.35
2019-01-12T06:01:50.247Z,7.10
2019-01-12T06:03:53.390Z,8.50
2019-01-12T06:05:56.300Z,7.72
2019-01-12T06:08:00.366Z,7.37
2019-01-12T06:10:03.274Z,8.10
2019-01-12T06:12:07.242Z,8.13
2019-01-12T06:14:10.186Z,7.62
2019-01-12T06:16:13.845Z,7.65
2019-01-12T06:18:19.159Z,7.05
2019-01-12T06:20:22.486Z,7.65
2019-01-12T06:22:25.463Z,7.80
2019-01-12T06:24:30.170Z,7.93
2019-01-12T06:26:33.051Z,8.60
2019-01-12T06:28:36.366Z,8.48
2019-01-12T06:30:40.006Z,7.50
2019-01-12T06:32:42.883Z,7.65
2019-01-12T06:34:45.796Z,7.93
2019-01-12T06:36:49.526Z,8.05
2019-01-12T06:38:54.863Z,8.07
2019-01-12T06:40:59.409Z,7.20
2019-01-12T06:43:02.721Z,9.07
2019-01-12T06:45:05.602Z,7.90
2019-01-12T06:47:09.346Z,8.93
2019-01-12T06:49:12.815Z,7.32
2019-01-12T06:51:16.169Z,7.85
2019-01-12T06:53:19.840Z,8.48
2019-01-12T06:55:22.710Z,8.73
2019-01-12T06:57:27.314Z,8.07
2019-01-12T06:59:30.719Z,8.23
2019-01-12T07:01:33.590Z,8.60
2019-01-12T07:03:36.483Z,8.00
2019-01-12T07:05:39.377Z,9.33
2019-01-12T07:07:42.257Z,8.77
2019-01-12T07:09:45.303Z,8.57
2019-01-12T07:11:48.214Z,8.68
2019-01-12T07:13:51.237Z,8.27
2019-01-12T07:15:55.942Z,7.65
2019-01-12T07:17:59.609Z,8.40
2019-01-12T07:20:02.496Z,8.98
2019-01-12T07:22:06.314Z,9.45
2019-01-12T07:24:09.327Z,8.48
2019-01-12T07:26:17.532Z,10.15
2019-01-12T07:28:15.975Z,9.68
2019-01-12T07:30:18.899Z,9.30
2019-01-12T07:32:21.780Z,9.63
2019-01-12T07:34:24.661Z,8.40
2019-01-12T07:36:27.554Z,9.05
2019-01-12T07:38:30.495Z,8.50
2019-01-12T07:40:33.353Z,7.80
2019-01-12T07:42:36.267Z,8.77
2019-01-12T07:44:39.906Z,9.02
2019-01-12T07:46:42.823Z,8.07
2019-01-12T07:48:45.906Z,9.73
2019-01-12T07:50:48.799Z,8.00
2019-01-12T07:52:51.671Z,8.60
2019-01-12T07:54:54.651Z,7.93
2019-01-12T07:56:57.630Z,9.20
2019-01-12T07:59:00.618Z,7.97
2019-01-12T08:01:03.593Z,9.40
2019-01-12T08:03:06.721Z,9.25
2019-01-12T08:05:10.354Z,9.90
2019-01-12T08:07:13.574Z,9.35
2019-01-12T08:09:16.472Z,7.63
2019-01-12T08:11:19.331Z,9.15
2019-01-12T08:13:22.359Z,8.40
2019-01-12T08:15:26.482Z,8.95
2019-01-12T08:17:29.855Z,9.43
2019-01-12T08:19:33.657Z,8.52
2019-01-12T08:21:37.322Z,8.17
2019-01-12T08:23:40.314Z,8.45
2019-01-12T08:25:43.595Z,8.93
2019-01-12T08:27:48.018Z,10.17
2019-01-12T08:29:53.254Z,8.60
2019-01-12T08:31:56.226Z,7.87
2019-01-12T08:34:00.627Z,8.20
2019-01-12T08:36:03.541Z,9.00
2019-01-12T08:38:06.446Z,8.10
2019-01-12T08:40:10.067Z,9.00
2019-01-12T08:42:12.991Z,9.13
2019-01-12T08:44:17.088Z,7.65
2019-01-12T08:46:19.961Z,8.27
2019-01-12T08:48:22.830Z,8.00
2019-01-12T08:50:25.847Z,7.70
2019-01-12T08:52:28.760Z,8.10
2019-01-12T08:54:32.378Z,8.93
2019-01-12T08:56:38.466Z,8.77
2019-01-12T08:58:38.182Z,7.90
2019-01-12T09:00:41.067Z,7.30
2019-01-12T09:02:43.962Z,7.72
2019-01-12T09:04:46.829Z,8.30
2019-01-12T09:06:49.710Z,7.57
2019-01-12T09:08:52.690Z,8.65
2019-01-12T09:10:55.566Z,6.40
2019-01-12T09:12:58.454Z,8.23
2019-01-12T09:15:01.443Z,8.17
2019-01-12T09:17:04.415Z,8.13
2019-01-12T09:19:07.309Z,7.43
2019-01-12T09:21:10.325Z,8.45
2019-01-12T09:23:14.474Z,7.70
2019-01-12T09:25:17.346Z,6.77
2019-01-12T09:27:21.108Z,7.67
2019-01-12T09:29:24.750Z,7.10
2019-01-12T09:31:27.616Z,7.20
2019-01-12T09:33:30.639Z,7.80
2019-01-12T09:35:33.515Z,8.10
2019-01-12T09:37:36.391Z,7.32
2019-01-12T09:39:39.391Z,7.53
2019-01-12T09:41:43.394Z,9.00
2019-01-12T09:43:46.381Z,8.07
2019-01-12T09:45:49.405Z,8.30
2019-01-12T09:47:52.698Z,8.25
2019-01-12T09:49:55.748Z,8.02
2019-01-12T09:51:59.835Z,9.07
2019-01-12T09:54:04.562Z,8.07
2019-01-12T09:56:07.449Z,6.90
2019-01-12T09:58:10.430Z,7.60
2019-01-12T10:00:20.296Z,7.50
2019-01-12T10:02:24.037Z,8.38
2019-01-12T10:04:27.844Z,7.70
2019-01-12T10:06:31.140Z,7.20
2019-01-12T10:08:34.038Z,7.17
2019-01-12T10:10:36.944Z,8.63
2019-01-12T10:12:40.672Z,8.10
2019-01-12T10:14:44.414Z,7.78
2019-01-12T10:16:47.522Z,8.57
2019-01-12T10:18:50.823Z,9.18
2019-01-12T10:20:54.486Z,7.57
2019-01-12T10:22:57.422Z,7.25
2019-01-12T10:25:01.068Z,8.13
2019-01-12T10:27:03.958Z,7.40
2019-01-12T10:29:07.090Z,8.40
2019-01-12T10:31:11.582Z,7.10
2019-01-12T10:33:16.228Z,7.65
2019-01-12T10:35:19.956Z,7.60
2019-01-12T10:37:23.276Z,6.70
2019-01-12T10:39:26.159Z,8.75
2019-01-12T10:41:29.094Z,8.15
2019-01-12T10:43:32.763Z,9.07
2019-01-12T10:45:37.118Z,8.27
2019-01-12T10:47:40.117Z,9.10
2019-01-12T10:49:43.647Z,8.13
2019-01-12T10:51:46.546Z,7.97
2019-01-12T10:53:50.216Z,7.50
2019-01-12T10:55:53.201Z,8.32
2019-01-12T10:57:56.121Z,8.40
2019-01-12T10:59:59.874Z,9.77
2019-01-12T11:02:02.770Z,10.10
2019-01-12T11:04:05.790Z,9.23
2019-01-12T11:06:09.150Z,8.52
2019-01-12T11:08:12.029Z,7.95
2019-01-12T11:10:14.904Z,8.25
2019-01-12T11:12:17.898Z,9.07
2019-01-12T11:14:21.554Z,8.60
2019-01-12T11:16:24.428Z,7.40
2019-01-12T11:18:27.342Z,7.60
2019-01-12T11:20:30.266Z,7.75
2019-01-12T11:22:33.179Z,8.10
2019-01-12T11:24:36.798Z,9.90
2019-01-12T11:26:39.691Z,6.20
2019-01-12T11:28:42.683Z,7.65
2019-01-12T11:30:45.655Z,6.93
2019-01-12T11:32:48.559Z,4.87
2019-01-12T11:34:52.211Z,5.53
2019-01-12T11:36:55.099Z,4.22
2019-01-12T11:38:57.999Z,4.75
2019-01-12T11:41:00.873Z,4.57
2019-01-12T11:43:04.502Z,5.45
2019-01-12T11:45:07.479Z,4.37
2019-01-12T11:47:11.010Z,4.97
2019-01-12T11:49:13.895Z,4.43
2019-01-12T11:51:16.767Z,5.70
2019-01-12T11:53:19.651Z,5.25
2019-01-12T11:55:22.539Z,4.57
2019-01-12T11:57:25.459Z,5.82
2019-01-12T11:59:29.887Z,5.60
2019-01-12T12:01:32.863Z,6.03
2019-01-12T12:03:35.729Z,5.35
2019-01-12T12:05:39.283Z,5.78
2019-01-12T12:07:42.603Z,5.87
2019-01-12T12:09:45.546Z,5.50
2019-01-12T12:11:49.206Z,5.80
2019-01-12T12:13:52.190Z,5.20
2019-01-12T12:15:55.081Z,5.25
2019-01-12T12:17:58.007Z,5.43
2019-01-12T12:20:00.910Z,6.18
2019-01-12T12:22:03.825Z,6.50
2019-01-12T12:24:07.474Z,7.12
2019-01-12T12:26:10.498Z,7.68
2019-01-12T12:28:13.382Z,7.00
2019-01-12T12:30:19.148Z,7.97
2019-01-12T12:32:22.935Z,8.90
2019-01-12T12:34:25.808Z,9.43
2019-01-12T12:36:28.744Z,9.00
2019-01-12T12:38:32.199Z,7.57
2019-01-12T12:40:35.847Z,8.65
2019-01-12T12:42:39.373Z,8.43
2019-01-12T12:44:42.423Z,9.50
2019-01-12T12:46:45.353Z,7.35
2019-01-12T12:48:48.341Z,8.27
2019-01-12T12:50:51.311Z,9.43
2019-01-12T12:52:54.238Z,9.00
2019-01-12T12:54:57.854Z,7.22
2019-01-12T12:57:00.759Z,7.87
2019-01-12T12:59:04.067Z,8.70
2019-01-12T13:01:06.941Z,8.50
2019-01-12T13:03:09.946Z,9.30
2019-01-12T13:05:13.886Z,8.68
2019-01-12T13:07:16.783Z,10.13
2019-01-12T13:09:20.112Z,8.95
2019-01-12T13:11:23.090Z,10.20
2019-01-12T13:13:25.978Z,10.15
2019-01-12T13:15:30.473Z,9.10
2019-01-12T13:17:34.182Z,11.02
2019-01-12T13:19:37.079Z,10.30
2019-01-12T13:21:40.870Z,10.95
2019-01-12T13:23:43.756Z,10.50
2019-01-12T13:25:46.651Z,10.70
2019-01-12T13:27:50.326Z,10.77
2019-01-12T13:29:53.214Z,10.70
2019-01-12T13:31:56.202Z,10.43
2019-01-12T13:33:59.879Z,8.85
2019-01-12T13:36:03.123Z,10.27
2019-01-12T13:38:07.270Z,10.55
2019-01-12T13:40:10.178Z,9.55
2019-01-12T13:42:13.055Z,10.57
2019-01-12T13:44:15.938Z,10.70
2019-01-12T13:46:19.063Z,13.00
2019-01-12T13:48:22.995Z,11.90
2019-01-12T13:50:25.923Z,11.80
2019-01-12T13:52:30.230Z,10.52
2019-01-12T13:54:33.219Z,10.65
2019-01-12T13:56:36.202Z,10.97
2019-01-12T13:58:40.227Z,11.05
2019-01-12T14:00:43.198Z,10.70
2019-01-12T14:02:46.857Z,9.13
2019-01-12T14:04:50.684Z,10.20
2019-01-12T14:06:53.578Z,10.32
2019-01-12T14:08:57.240Z,9.93
2019-01-12T14:11:00.152Z,10.95
2019-01-12T14:13:03.034Z,11.18
2019-01-12T14:15:07.327Z,10.65
2019-01-12T14:17:10.218Z,11.32
2019-01-12T14:19:13.103Z,11.23
2019-01-12T14:21:16.086Z,9.90
2019-01-12T14:23:18.986Z,11.82
2019-01-12T14:25:23.829Z,10.45
2019-01-12T14:27:27.632Z,10.18
2019-01-12T14:29:31.742Z,10.02
2019-01-12T14:31:34.930Z,10.32
2019-01-12T14:33:37.917Z,10.85
2019-01-12T14:35:41.685Z,9.50
2019-01-12T14:37:44.631Z,8.98
2019-01-12T14:39:48.443Z,9.40
2019-01-12T14:41:51.443Z,9.88
2019-01-12T14:43:54.330Z,9.30
2019-01-12T14:45:57.217Z,9.27
2019-01-12T14:48:00.520Z,9.43
2019-01-12T14:50:04.179Z,9.73
2019-01-12T14:52:07.061Z,9.85
2019-01-12T14:54:10.119Z,8.95
2019-01-12T14:56:12.938Z,9.13
2019-01-12T14:58:15.868Z,8.70
2019-01-12T15:00:22.207Z,9.05
2019-01-12T15:02:26.509Z,8.90
2019-01-12T15:04:29.390Z,7.65
2019-01-12T15:06:32.280Z,7.70
2019-01-12T15:08:35.551Z,7.97
2019-01-12T15:10:39.310Z,8.43
2019-01-12T15:12:42.874Z,8.32
2019-01-12T15:14:45.845Z,9.37
2019-01-12T15:16:49.139Z,8.77
2019-01-12T15:18:52.245Z,9.93
2019-01-12T15:20:56.029Z,9.13
2019-01-12T15:23:00.179Z,9.13
2019-01-12T15:25:03.304Z,8.45
2019-01-12T15:27:06.186Z,8.55
2019-01-12T15:29:09.079Z,8.25
2019-01-12T15:31:12.029Z,8.70
2019-01-12T15:33:14.942Z,8.65
2019-01-12T15:35:18.675Z,10.27
2019-01-12T15:37:22.366Z,9.57
2019-01-12T15:39:26.019Z,9.85
2019-01-12T15:41:28.907Z,8.60
2019-01-12T15:43:31.858Z,9.13
2019-01-12T15:45:34.883Z,9.40
2019-01-12T15:47:37.754Z,10.80
2019-01-12T15:49:41.055Z,9.38
2019-01-12T15:51:43.930Z,9.65
2019-01-12T15:53:46.807Z,9.02
2019-01-12T15:55:51.138Z,9.05
2019-01-12T15:57:54.029Z,9.80
2019-01-12T15:59:56.990Z,9.40
2019-01-12T16:01:59.895Z,10.50
2019-01-12T16:04:03.543Z,10.52
2019-01-12T16:06:06.449Z,10.60
2019-01-12T16:08:09.434Z,10.73
2019-01-12T16:10:12.318Z,11.38
2019-01-12T16:12:15.978Z,10.38
2019-01-12T16:14:19.036Z,9.13
2019-01-12T16:16:22.675Z,9.90
2019-01-12T16:18:25.576Z,10.85
2019-01-12T16:20:31.217Z,9.55
2019-01-12T16:22:34.105Z,9.93
2019-01-12T16:24:37.179Z,9.00
2019-01-12T16:26:41.502Z,9.07
2019-01-12T16:28:44.387Z,8.70
2019-01-12T16:30:47.259Z,9.55
2019-01-12T16:32:50.283Z,9.00
2019-01-12T16:34:53.955Z,7.68
2019-01-12T16:36:56.826Z,7.55
2019-01-12T16:38:59.722Z,8.02
2019-01-12T16:41:02.655Z,7.13
2019-01-12T16:43:05.611Z,7.30
2019-01-12T16:45:09.292Z,7.35
2019-01-12T16:47:13.362Z,6.05
2019-01-12T16:49:16.234Z,7.15
2019-01-12T16:51:19.158Z,5.78
2019-01-12T16:53:23.083Z,6.90
2019-01-12T16:55:27.704Z,6.72
2019-01-12T16:57:31.363Z,6.70
2019-01-12T16:59:34.863Z,6.60
2019-01-12T17:01:37.860Z,7.00
2019-01-12T17:03:40.842Z,5.77
2019-01-12T17:05:45.193Z,6.00
2019-01-12T17:07:48.076Z,5.45
2019-01-12T17:09:51.831Z,5.47
2019-01-12T17:11:54.806Z,5.80
2019-01-12T17:13:57.686Z,5.47
2019-01-12T17:16:00.674Z,5.50
2019-01-12T17:18:03.539Z,6.03
2019-01-12T17:20:07.347Z,5.10
2019-01-12T17:22:10.359Z,6.95
2019-01-12T17:24:13.994Z,5.85
2019-01-12T17:26:16.955Z,6.28
2019-01-12T17:28:20.605Z,5.53
2019-01-12T17:30:23.536Z,5.07
2019-01-12T17:32:27.983Z,5.03
2019-01-12T17:34:30.888Z,6.20
2019-01-12T17:36:34.329Z,6.47
2019-01-12T17:38:38.215Z,5.23
2019-01-12T17:40:41.894Z,5.12
2019-01-12T17:42:44.763Z,4.90
2019-01-12T17:44:47.649Z,4.43
2019-01-12T17:46:50.701Z,4.40
2019-01-12T17:48:55.275Z,3.90
2019-01-12T17:50:58.161Z,4.00
2019-01-12T17:53:01.040Z,3.42
2019-01-12T17:55:05.682Z,4.60
2019-01-12T17:57:09.302Z,3.80
2019-01-12T17:59:12.602Z,3.83
2019-01-12T18:01:16.294Z,4.70
2019-01-12T18:03:19.171Z,3.50
2019-01-12T18:05:22.110Z,3.80
2019-01-12T18:07:25.752Z,3.92
2019-01-12T18:09:28.680Z,3.62
2019-01-12T18:11:31.970Z,3.95
2019-01-12T18:13:35.095Z,3.70
2019-01-12T18:15:38.136Z,4.55
2019-01-12T18:17:41.015Z,4.20
2019-01-12T18:19:43.891Z,4.87
2019-01-12T18:21:46.740Z,5.32
2019-01-12T18:23:49.765Z,3.80
2019-01-12T18:25:52.637Z,4.53
2019-01-12T18:27:55.502Z,3.03
2019-01-12T18:29:58.411Z,4.53
2019-01-12T18:32:02.348Z,2.95
2019-01-12T18:34:05.294Z,1.80
2019-01-12T18:36:08.383Z,2.60
2019-01-12T18:38:11.255Z,2.53
2019-01-12T18:40:17.018Z,2.30
2019-01-12T18:42:20.002Z,2.07
2019-01-12T18:44:22.880Z,2.37
2019-01-12T18:46:25.753Z,2.57
2019-01-12T18:48:28.729Z,2.40
2019-01-12T18:50:31.614Z,2.20
2019-01-12T18:52:35.360Z,2.20
2019-01-12T18:54:39.139Z,2.12
2019-01-12T18:56:42.106Z,2.10
2019-01-12T18:58:44.970Z,1.80
2019-01-12T19:00:47.862Z,1.75
2019-01-12T19:02:50.744Z,1.73
2019-01-12T19:04:53.647Z,2.12
2019-01-12T19:06:57.668Z,1.67
2019-01-12T19:09:01.662Z,2.27
2019-01-12T19:11:05.338Z,1.87
2019-01-12T19:13:08.932Z,1.92
2019-01-12T19:15:23.811Z,1.90
2019-01-12T19:17:27.999Z,2.55
2019-01-12T19:19:30.904Z,1.95
2019-01-12T19:21:34.570Z,2.10
2019-01-12T19:23:37.542Z,1.52
2019-01-12T19:25:40.871Z,1.93
2019-01-12T19:27:43.742Z,1.42
2019-01-12T19:29:48.160Z,1.75
2019-01-12T19:31:51.142Z,1.55
2019-01-12T19:33:54.122Z,1.30
2019-01-12T19:35:57.006Z,2.95
2019-01-12T19:38:00.166Z,2.60
2019-01-12T19:40:03.046Z,1.65
2019-01-12T19:42:06.240Z,1.77
2019-01-12T19:44:09.247Z,1.75
2019-01-12T19:46:12.243Z,1.30
2019-01-12T19:48:15.882Z,2.03
2019-01-12T19:50:20.563Z,1.15
2019-01-12T19:52:24.983Z,1.02
2019-01-12T19:54:29.974Z,1.40
2019-01-12T19:56:33.324Z,1.23
2019-01-12T19:58:36.991Z,1.58
2019-01-12T20:00:40.474Z,1.40
2019-01-12T20:02:43.379Z,2.07
2019-01-12T20:04:46.347Z,1.80
2019-01-12T20:06:49.235Z,1.10
2019-01-12T20:08:52.911Z,1.45
2019-01-12T20:10:55.806Z,1.10
2019-01-12T20:12:58.815Z,1.45
2019-01-12T20:15:03.222Z,1.37
2019-01-12T20:17:07.005Z,1.12
2019-01-12T20:19:09.878Z,1.00
2019-01-12T20:21:12.876Z,1.87
2019-01-12T20:23:15.750Z,1.90
2019-01-12T20:25:21.295Z,1.42
2019-01-12T20:27:24.306Z,2.00
2019-01-12T20:29:27.158Z,1.30
2019-01-12T20:31:47.090Z,1.30
2019-01-12T20:33:50.030Z,1.50
2019-01-12T20:36:24.845Z,1.40
2019-01-12T20:38:50.366Z,1.12
2019-01-12T20:40:54.215Z,1.27
2019-01-12T20:43:08.165Z,1.40
2019-01-12T20:45:13.650Z,1.30
2019-01-12T20:47:20.322Z,1.55
2019-01-12T20:49:23.190Z,1.30
2019-01-12T20:51:48.619Z,1.30
2019-01-12T20:54:23.746Z,1.35
2019-01-12T20:56:29.398Z,1.40
2019-01-12T20:58:40.061Z,1.60
2019-01-12T21:00:57.671Z,1.73
2019-01-12T21:03:04.239Z,1.93
2019-01-12T21:05:14.543Z,1.50
2019-01-12T21:07:23.566Z,1.10
2019-01-12T21:09:38.371Z,1.37
2019-01-12T21:11:58.118Z,1.43
2019-01-12T21:14:06.281Z,2.30
2019-01-12T21:16:13.295Z,1.83
2019-01-12T21:18:16.981Z,1.80
2019-01-12T21:20:19.935Z,1.50
2019-01-12T21:22:23.155Z,1.33
2019-01-12T21:24:26.952Z,1.65
2019-01-12T21:26:29.815Z,2.20
2019-01-12T21:28:33.740Z,2.67
2019-01-12T21:30:38.156Z,2.20
2019-01-12T21:32:41.616Z,1.83
2019-01-12T21:34:45.042Z,1.52
2019-01-12T21:36:48.106Z,2.10
2019-01-12T21:38:51.110Z,1.67
2019-01-12T21:40:54.179Z,1.60
2019-01-12T21:42:58.101Z,2.05
2019-01-12T21:45:01.291Z,1.70
2019-01-12T21:47:04.584Z,1.60
2019-01-12T21:49:07.466Z,1.50
2019-01-12T21:51:10.679Z,1.35
2019-01-12T21:53:14.935Z,2.05
2019-01-12T21:55:18.152Z,1.40
2019-01-12T21:57:21.105Z,1.60
2019-01-12T21:59:25.495Z,2.05
2019-01-12T22:01:36.093Z,2.72
2019-01-12T22:03:32.827Z,1.75
2019-01-12T22:05:35.735Z,1.83
2019-01-12T22:07:38.840Z,1.93
2019-01-12T22:09:43.948Z,2.10
2019-01-12T22:11:47.237Z,1.90
2019-01-12T22:13:50.364Z,1.80
2019-01-12T22:15:53.649Z,2.10
2019-01-12T22:17:57.623Z,1.73
2019-01-12T22:20:01.524Z,1.77
2019-01-12T22:22:05.842Z,2.10
2019-01-12T22:24:08.846Z,1.75
2019-01-12T22:26:11.657Z,1.95
2019-01-12T22:28:14.582Z,1.52
2019-01-12T22:30:18.318Z,1.70
2019-01-12T22:32:21.233Z,1.67
2019-01-12T22:34:24.214Z,2.00
2019-01-12T22:36:27.095Z,1.85
2019-01-12T22:38:29.982Z,1.70
2019-01-12T22:40:32.958Z,1.85
2019-01-12T22:42:35.838Z,1.73
2019-01-12T22:44:38.715Z,1.60
2019-01-12T22:46:41.614Z,2.00
2019-01-12T22:48:45.991Z,1.40
2019-01-12T22:50:48.855Z,1.70
2019-01-12T22:52:51.755Z,2.37
2019-01-12T22:54:55.615Z,1.75
2019-01-12T22:56:58.568Z,2.28
2019-01-12T22:59:01.479Z,2.10
2019-01-12T23:01:04.355Z,2.30
2019-01-12T23:03:08.470Z,2.40
2019-01-12T23:05:11.455Z,2.12
2019-01-12T23:07:14.359Z,1.90
2019-01-12T23:09:17.234Z,1.75
2019-01-12T23:11:20.617Z,2.03
2019-01-12T23:13:23.499Z,2.10
2019-01-12T23:15:27.160Z,2.08
2019-01-12T23:17:30.045Z,2.20
2019-01-12T23:19:32.916Z,2.00
2019-01-12T23:21:35.803Z,1.70
2019-01-12T23:23:39.911Z,1.90
2019-01-12T23:25:42.816Z,2.20
2019-01-12T23:27:46.483Z,1.80
2019-01-12T23:29:51.287Z,1.90
2019-01-12T23:31:54.157Z,2.08
2019-01-12T23:33:57.038Z,2.57
2019-01-12T23:35:59.918Z,2.67
2019-01-12T23:38:02.796Z,2.00
2019-01-12T23:40:13.071Z,2.10
2019-01-12T23:42:16.751Z,2.37
2019-01-12T23:44:19.977Z,2.30
2019-01-12T23:46:22.889Z,2.03
2019-01-12T23:48:27.171Z,2.03
2019-01-12T23:50:30.048Z,2.03
2019-01-12T23:52:32.940Z,2.67
2019-01-12T23:54:35.835Z,2.70
2019-01-12T23:56:40.330Z,2.20
2019-01-12T23:58:43.327Z,2.47
